createdAt,value
2024-01-29T00:01:08.048Z,13.80
2024-01-29T00:03:51.191Z,13.10
2024-01-29T00:06:19.759Z,12.20
2024-01-29T00:08:48.732Z,11.50
2024-01-29T00:11:17.711Z,10.40
2024-01-29T00:13:47.493Z,10.60
2024-01-29T00:16:15.964Z,11.60
2024-01-29T00:18:44.495Z,11.00
2024-01-29T00:21:14.335Z,10.70
2024-01-29T00:23:42.825Z,13.10
2024-01-29T00:26:11.266Z,11.70
2024-01-29T00:28:39.671Z,11.30
2024-01-29T00:31:08.828Z,12.00
2024-01-29T00:33:37.666Z,13.60
2024-01-29T00:36:06.623Z,14.20
2024-01-29T00:38:35.741Z,14.40
2024-01-29T00:41:04.679Z,15.20
2024-01-29T00:43:33.775Z,14.90
2024-01-29T00:46:02.361Z,15.40
2024-01-29T00:48:30.976Z,15.90
2024-01-29T00:50:59.518Z,15.00
2024-01-29T00:53:28.265Z,15.30
2024-01-29T00:55:56.771Z,15.20
2024-01-29T00:58:26.212Z,14.30
2024-01-29T01:00:54.802Z,16.70
2024-01-29T01:03:23.339Z,14.30
2024-01-29T01:05:52.160Z,14.70
2024-01-29T01:08:20.595Z,13.50
2024-01-29T01:10:48.930Z,13.20
2024-01-29T01:13:17.319Z,13.10
2024-01-29T01:15:45.788Z,13.70
2024-01-29T01:18:14.388Z,12.80
2024-01-29T01:20:42.749Z,13.50
2024-01-29T01:23:11.406Z,14.10
2024-01-29T01:25:39.890Z,13.70
2024-01-29T01:28:10.213Z,13.00
2024-01-29T01:30:38.718Z,12.40
2024-01-29T01:33:07.585Z,12.60
2024-01-29T01:35:36.060Z,13.40
2024-01-29T01:38:04.630Z,14.20
2024-01-29T01:40:33.065Z,14.00
2024-01-29T01:43:18.962Z,12.80
2024-01-29T01:46:06.239Z,13.00
2024-01-29T01:48:38.462Z,12.70
2024-01-29T01:51:07.430Z,12.70
2024-01-29T01:53:37.980Z,13.40
2024-01-29T01:56:08.023Z,13.10
2024-01-29T01:58:37.336Z,13.10
2024-01-29T02:01:05.863Z,13.60
2024-01-29T02:03:34.717Z,15.00
2024-01-29T02:06:03.438Z,15.30
2024-01-29T02:08:32.233Z,15.10
2024-01-29T02:11:03.624Z,16.00
2024-01-29T02:13:33.220Z,17.60
2024-01-29T02:16:04.711Z,17.70
2024-01-29T02:18:33.501Z,16.40
2024-01-29T02:21:02.817Z,15.90
2024-01-29T02:23:31.295Z,17.70
2024-01-29T02:25:59.729Z,16.80
2024-01-29T02:28:29.230Z,15.20
2024-01-29T02:30:57.813Z,16.10
2024-01-29T02:33:26.541Z,15.40
2024-01-29T02:35:55.166Z,16.10
2024-01-29T02:38:23.607Z,14.90
2024-01-29T02:40:51.992Z,14.60
2024-01-29T02:43:22.018Z,16.10
2024-01-29T02:45:52.030Z,14.70
2024-01-29T02:48:20.692Z,15.80
2024-01-29T02:50:49.572Z,16.90
2024-01-29T02:53:18.094Z,19.30
2024-01-29T02:55:47.681Z,18.60
2024-01-29T02:58:16.048Z,17.00
2024-01-29T03:00:44.578Z,17.10
2024-01-29T03:03:14.782Z,17.10
2024-01-29T03:05:43.405Z,17.50
2024-01-29T03:08:12.023Z,17.80
2024-01-29T03:10:40.390Z,17.20
2024-01-29T03:13:08.928Z,18.70
2024-01-29T03:15:37.804Z,17.70
2024-01-29T03:18:06.403Z,17.70
2024-01-29T03:20:34.871Z,16.50
2024-01-29T03:23:03.365Z,15.90
2024-01-29T03:25:31.740Z,16.40
2024-01-29T03:28:00.202Z,17.60
2024-01-29T03:30:28.720Z,18.30
2024-01-29T03:32:58.673Z,17.60
2024-01-29T03:35:27.154Z,17.20
2024-01-29T03:37:55.514Z,18.50
2024-01-29T03:40:23.873Z,18.50
2024-01-29T03:42:52.987Z,17.70
2024-01-29T03:45:21.547Z,17.20
2024-01-29T03:47:50.046Z,19.00
2024-01-29T03:50:18.538Z,19.60
2024-01-29T03:52:49.182Z,19.80
2024-01-29T03:55:17.897Z,18.00
2024-01-29T03:57:49.997Z,17.40
2024-01-29T04:00:21.286Z,18.00
2024-01-29T04:02:51.441Z,17.80
2024-01-29T04:05:20.417Z,18.90
2024-01-29T04:07:50.000Z,19.60
2024-01-29T04:10:18.588Z,19.10
2024-01-29T04:12:47.072Z,20.00
2024-01-29T04:15:16.097Z,19.00
2024-01-29T04:17:44.647Z,18.10
2024-01-29T04:20:13.375Z,16.90
2024-01-29T04:22:41.757Z,16.60
2024-01-29T04:25:10.569Z,17.50
2024-01-29T04:27:40.020Z,16.40
2024-01-29T04:30:09.170Z,16.70
2024-01-29T04:32:37.657Z,14.90
2024-01-29T04:35:06.663Z,16.20
2024-01-29T04:37:35.766Z,16.90
2024-01-29T04:40:05.070Z,15.60
2024-01-29T04:42:33.635Z,15.40
2024-01-29T04:45:02.220Z,16.00
2024-01-29T04:47:30.801Z,17.00
2024-01-29T04:49:59.318Z,16.70
2024-01-29T04:52:28.010Z,16.50
2024-01-29T04:55:02.677Z,17.00
2024-01-29T04:57:33.395Z,17.10
2024-01-29T05:00:03.033Z,18.50
2024-01-29T05:02:31.548Z,19.00
2024-01-29T05:04:59.991Z,20.50
2024-01-29T05:07:28.959Z,19.00
2024-01-29T05:09:57.428Z,18.70
2024-01-29T05:12:26.812Z,18.50
2024-01-29T05:14:55.277Z,19.50
2024-01-29T05:17:24.031Z,18.60
2024-01-29T05:19:52.605Z,19.40
2024-01-29T05:22:21.134Z,18.80
2024-01-29T05:24:53.031Z,19.70
2024-01-29T05:27:22.103Z,20.10
2024-01-29T05:29:51.255Z,18.60
2024-01-29T05:32:21.037Z,17.50
2024-01-29T05:34:52.159Z,19.00
2024-01-29T05:37:20.833Z,18.20
2024-01-29T05:39:49.457Z,19.10
2024-01-29T05:42:18.000Z,18.60
2024-01-29T05:44:46.406Z,18.30
2024-01-29T05:47:14.887Z,17.80
2024-01-29T05:49:43.416Z,16.00
2024-01-29T05:52:11.932Z,14.90
2024-01-29T05:54:40.744Z,15.10
2024-01-29T05:57:12.207Z,15.70
2024-01-29T05:59:41.671Z,16.50
2024-01-29T06:02:10.553Z,17.10
2024-01-29T06:04:39.067Z,16.20
2024-01-29T06:07:08.065Z,17.20
2024-01-29T06:09:36.671Z,15.80
2024-01-29T06:12:05.658Z,16.60
2024-01-29T06:14:34.410Z,17.20
2024-01-29T06:17:02.843Z,18.20
2024-01-29T06:19:31.964Z,16.60
2024-01-29T06:22:00.649Z,16.40
2024-01-29T06:24:29.037Z,14.60
2024-01-29T06:26:57.554Z,14.20
2024-01-29T06:29:27.289Z,13.40
2024-01-29T06:31:55.718Z,12.60
2024-01-29T06:34:26.793Z,13.40
2024-01-29T06:36:55.604Z,13.60
2024-01-29T06:39:25.794Z,12.80
2024-01-29T06:41:54.272Z,11.80
2024-01-29T06:44:22.718Z,13.30
2024-01-29T06:46:51.172Z,14.80
2024-01-29T06:49:28.394Z,13.50
2024-01-29T06:51:59.458Z,14.50
2024-01-29T06:54:27.995Z,13.40
2024-01-29T06:56:56.937Z,12.50
2024-01-29T06:59:27.947Z,12.20
2024-01-29T07:02:00.648Z,12.60
2024-01-29T07:06:59.045Z,11.60
2024-01-29T07:09:33.245Z,12.40
2024-01-29T07:12:01.865Z,11.60
2024-01-29T07:14:30.396Z,12.40
2024-01-29T07:16:58.845Z,11.40
2024-01-29T07:19:29.528Z,12.00
2024-01-29T07:21:58.889Z,11.40
2024-01-29T07:24:27.669Z,12.20
2024-01-29T07:26:56.102Z,11.10
2024-01-29T07:29:24.710Z,10.50
2024-01-29T07:31:54.540Z,10.70
2024-01-29T07:34:23.600Z,12.00
2024-01-29T07:36:52.254Z,10.70
2024-01-29T07:39:21.471Z,10.90
2024-01-29T07:41:49.958Z,11.20
2024-01-29T07:44:18.781Z,11.10
2024-01-29T07:46:47.242Z,10.10
2024-01-29T07:49:15.908Z,11.50
2024-01-29T07:51:44.767Z,9.60
2024-01-29T07:54:14.060Z,10.60
2024-01-29T07:56:43.932Z,10.80
2024-01-29T07:59:12.684Z,11.10
2024-01-29T08:01:41.434Z,10.70
2024-01-29T08:04:10.107Z,9.30
2024-01-29T08:06:38.907Z,9.30
2024-01-29T08:09:08.205Z,9.60
2024-01-29T08:11:36.661Z,9.70
2024-01-29T08:14:05.239Z,9.70
2024-01-29T08:16:33.682Z,9.00
2024-01-29T08:19:02.491Z,9.20
2024-01-29T08:21:31.671Z,7.80
2024-01-29T08:24:00.086Z,7.60
2024-01-29T08:26:29.338Z,10.00
2024-01-29T08:28:59.166Z,8.50
2024-01-29T08:31:27.877Z,8.40
2024-01-29T08:33:56.931Z,8.10
2024-01-29T08:36:25.450Z,8.90
2024-01-29T08:38:53.878Z,8.40
2024-01-29T08:41:22.327Z,8.50
2024-01-29T08:43:50.959Z,9.50
2024-01-29T08:46:19.883Z,11.20
2024-01-29T08:48:48.491Z,9.40
2024-01-29T08:51:17.055Z,12.70
2024-01-29T08:53:45.466Z,12.40
2024-01-29T08:56:14.263Z,11.30
2024-01-29T08:58:43.039Z,10.60
2024-01-29T09:01:11.541Z,10.90
2024-01-29T09:03:42.589Z,11.10
2024-01-29T09:06:11.601Z,11.90
2024-01-29T09:08:43.589Z,11.80
2024-01-29T09:11:12.477Z,12.00
2024-01-29T09:13:42.501Z,12.50
2024-01-29T09:16:11.290Z,13.00
2024-01-29T09:18:39.853Z,12.30
2024-01-29T09:21:10.985Z,12.60
2024-01-29T09:23:40.635Z,12.50
2024-01-29T09:26:09.070Z,11.20
2024-01-29T09:28:41.527Z,12.50
2024-01-29T09:31:10.813Z,11.50
2024-01-29T09:33:39.575Z,11.90
2024-01-29T09:36:08.498Z,10.90
2024-01-29T09:38:36.938Z,9.60
2024-01-29T09:41:05.513Z,10.50
2024-01-29T09:43:37.106Z,9.20
2024-01-29T09:46:06.211Z,11.30
2024-01-29T09:48:35.958Z,8.90
2024-01-29T09:51:06.009Z,8.70
2024-01-29T09:53:37.253Z,8.90
2024-01-29T09:56:06.202Z,10.50
2024-01-29T09:58:34.994Z,9.80
2024-01-29T10:01:10.652Z,13.80
2024-01-29T10:03:40.169Z,9.80
2024-01-29T10:06:09.108Z,10.60
2024-01-29T10:08:38.914Z,10.60
2024-01-29T10:11:08.917Z,10.60
2024-01-29T10:13:40.435Z,11.60
2024-01-29T10:16:09.331Z,10.30
2024-01-29T10:18:38.901Z,10.60
2024-01-29T10:21:07.864Z,8.30
2024-01-29T10:23:38.739Z,8.30
2024-01-29T10:26:07.291Z,7.80
2024-01-29T10:28:36.492Z,7.80
2024-01-29T10:31:06.001Z,6.60
2024-01-29T10:33:34.719Z,6.90
2024-01-29T10:36:05.308Z,6.30
2024-01-29T10:38:36.049Z,6.70
2024-01-29T10:41:08.183Z,6.30
2024-01-29T10:43:43.273Z,6.60
2024-01-29T10:46:16.845Z,6.60
2024-01-29T10:48:46.870Z,5.60
2024-01-29T10:51:16.491Z,5.10
2024-01-29T10:53:46.862Z,5.10
2024-01-29T10:56:17.808Z,6.30
2024-01-29T10:58:51.078Z,4.60
2024-01-29T11:01:20.734Z,5.60
2024-01-29T11:03:50.000Z,5.30
2024-01-29T11:06:34.491Z,5.80
2024-01-29T11:09:14.282Z,4.20
2024-01-29T11:11:48.059Z,4.60
2024-01-29T11:14:21.279Z,5.00
2024-01-29T11:16:53.830Z,4.50
2024-01-29T11:19:23.795Z,5.50
2024-01-29T11:21:52.452Z,5.30
2024-01-29T11:24:25.532Z,5.70
2024-01-29T11:26:56.156Z,4.60
2024-01-29T11:29:25.895Z,4.60
2024-01-29T11:31:55.495Z,4.30
2024-01-29T11:34:29.298Z,4.30
2024-01-29T11:36:58.505Z,4.40
2024-01-29T11:39:29.147Z,5.40
2024-01-29T11:41:57.836Z,5.00
2024-01-29T11:48:00.129Z,3.90
2024-01-29T11:50:29.322Z,4.10
2024-01-29T11:53:04.994Z,4.70
2024-01-29T11:55:34.618Z,5.40
2024-01-29T11:58:03.241Z,4.70
2024-01-29T12:00:32.409Z,5.30
2024-01-29T12:03:00.958Z,3.90
2024-01-29T12:05:29.461Z,3.90
2024-01-29T12:07:58.260Z,4.00
2024-01-29T12:10:26.947Z,3.80
2024-01-29T12:12:55.406Z,3.90
2024-01-29T12:15:23.929Z,3.50
2024-01-29T12:17:54.712Z,3.30
2024-01-29T12:20:24.295Z,3.30
2024-01-29T12:22:52.948Z,4.10
2024-01-29T12:25:23.841Z,3.00
2024-01-29T12:28:07.037Z,3.60
2024-01-29T12:30:35.766Z,4.20
2024-01-29T12:33:08.058Z,4.40
2024-01-29T12:35:38.162Z,3.70
2024-01-29T12:38:07.625Z,4.20
2024-01-29T12:40:37.647Z,3.80
2024-01-29T12:43:08.031Z,4.10
2024-01-29T12:45:37.737Z,3.80
2024-01-29T12:48:20.794Z,4.00
2024-01-29T12:50:49.534Z,6.00
2024-01-29T12:53:18.041Z,4.50
2024-01-29T12:55:46.450Z,4.90
2024-01-29T12:58:15.183Z,4.70
2024-01-29T13:00:47.033Z,4.60
2024-01-29T13:03:15.734Z,4.70
2024-01-29T13:05:46.675Z,5.40
2024-01-29T13:08:17.379Z,4.60
2024-01-29T13:10:45.832Z,6.70
2024-01-29T13:13:16.485Z,5.40
2024-01-29T13:15:46.027Z,5.10
2024-01-29T13:18:14.823Z,4.70
2024-01-29T13:20:43.247Z,6.50
2024-01-29T13:23:11.899Z,8.70
2024-01-29T13:25:43.272Z,6.50
2024-01-29T13:28:12.010Z,6.40
2024-01-29T13:30:41.080Z,8.60
2024-01-29T13:33:10.522Z,5.20
2024-01-29T13:35:39.267Z,10.90
2024-01-29T13:38:07.664Z,5.70
2024-01-29T13:40:36.746Z,5.00
2024-01-29T13:43:05.180Z,5.40
2024-01-29T13:45:33.888Z,5.60
2024-01-29T13:48:03.779Z,10.00
2024-01-29T13:50:32.740Z,7.10
2024-01-29T13:53:01.468Z,5.60
2024-01-29T13:55:29.910Z,7.20
2024-01-29T13:57:58.433Z,5.30
2024-01-29T14:00:28.398Z,6.90
2024-01-29T14:02:57.395Z,11.20
2024-01-29T14:05:26.757Z,11.60
2024-01-29T14:07:55.301Z,14.40
2024-01-29T14:10:23.821Z,8.90
2024-01-29T14:12:52.418Z,5.90
2024-01-29T14:15:21.365Z,5.30
2024-01-29T14:17:49.848Z,5.10
2024-01-29T14:20:18.379Z,8.30
2024-01-29T14:22:46.882Z,5.60
2024-01-29T14:25:15.572Z,5.00
2024-01-29T14:27:44.071Z,5.60
2024-01-29T14:30:12.715Z,4.80
2024-01-29T14:32:41.360Z,5.80
2024-01-29T14:35:11.668Z,5.40
2024-01-29T14:37:42.710Z,5.30
2024-01-29T14:40:11.456Z,11.50
2024-01-29T14:42:40.839Z,7.00
2024-01-29T14:45:09.262Z,6.20
2024-01-29T14:47:37.980Z,5.10
2024-01-29T14:50:06.988Z,5.10
2024-01-29T14:52:35.476Z,5.00
2024-01-29T14:55:05.551Z,5.30
2024-01-29T14:57:34.280Z,5.20
2024-01-29T15:00:03.623Z,5.20
2024-01-29T15:02:32.165Z,7.70
2024-01-29T15:05:00.972Z,6.60
2024-01-29T15:07:29.829Z,5.90
2024-01-29T15:09:58.564Z,5.60
2024-01-29T15:12:28.509Z,6.20
2024-01-29T15:14:57.185Z,6.10
2024-01-29T15:17:26.981Z,5.50
2024-01-29T15:19:55.704Z,4.80
2024-01-29T15:22:24.317Z,4.90
2024-01-29T15:24:52.943Z,4.90
2024-01-29T15:27:21.719Z,4.80
2024-01-29T15:29:50.246Z,5.90
2024-01-29T15:32:19.288Z,4.70
2024-01-29T15:34:51.053Z,5.20
2024-01-29T15:37:21.466Z,4.40
2024-01-29T15:39:50.169Z,4.70
2024-01-29T15:42:19.181Z,5.10
2024-01-29T15:44:47.707Z,5.50
2024-01-29T15:47:17.668Z,5.10
2024-01-29T15:49:48.526Z,5.40
2024-01-29T15:52:17.205Z,7.40
2024-01-29T15:54:45.728Z,7.10
2024-01-29T15:57:14.368Z,6.90
2024-01-29T15:59:44.252Z,7.10
2024-01-29T16:02:12.757Z,7.40
2024-01-29T16:04:44.433Z,9.70
2024-01-29T16:07:13.170Z,8.00
2024-01-29T16:09:42.696Z,6.50
2024-01-29T16:12:11.188Z,7.50
2024-01-29T16:14:40.377Z,7.10
2024-01-29T16:17:09.708Z,18.50
2024-01-29T16:19:40.365Z,11.20
2024-01-29T16:22:09.157Z,10.30
2024-01-29T16:24:41.022Z,9.30
2024-01-29T16:27:09.463Z,8.90
2024-01-29T16:29:38.277Z,14.90
2024-01-29T16:32:07.171Z,10.10
2024-01-29T16:34:39.153Z,8.00
2024-01-29T16:37:08.488Z,10.70
2024-01-29T16:39:37.621Z,12.90
2024-01-29T16:42:06.847Z,8.00
2024-01-29T16:44:35.417Z,7.00
2024-01-29T16:47:03.867Z,7.30
2024-01-29T16:49:32.400Z,6.60
2024-01-29T16:52:01.573Z,7.80
2024-01-29T16:54:30.102Z,8.00
2024-01-29T16:57:07.528Z,8.90
2024-01-29T16:59:38.211Z,8.80
2024-01-29T17:02:09.898Z,8.50
2024-01-29T17:04:39.357Z,8.30
2024-01-29T17:07:09.076Z,8.00
2024-01-29T17:09:38.006Z,8.10
2024-01-29T17:12:06.821Z,9.40
2024-01-29T17:14:35.255Z,8.80
2024-01-29T17:17:04.565Z,10.40
2024-01-29T17:19:50.165Z,10.70
2024-01-29T17:22:18.807Z,14.40
2024-01-29T17:24:47.770Z,23.30
2024-01-29T17:27:16.863Z,24.50
2024-01-29T17:29:45.220Z,26.10
2024-01-29T17:32:13.697Z,24.10
2024-01-29T17:34:42.247Z,23.30
2024-01-29T17:37:11.009Z,22.60
2024-01-29T17:39:39.653Z,24.20
2024-01-29T17:42:10.989Z,27.00
2024-01-29T17:44:40.367Z,27.40
2024-01-29T17:47:09.815Z,27.30
2024-01-29T17:49:38.799Z,26.00
2024-01-29T17:52:08.509Z,27.10
2024-01-29T17:54:41.745Z,27.00
2024-01-29T17:57:12.481Z,28.20
2024-01-29T17:59:41.525Z,28.30
2024-01-29T18:02:10.842Z,26.90
2024-01-29T18:04:39.471Z,28.90
2024-01-29T18:07:08.509Z,32.10
2024-01-29T18:09:37.442Z,30.60
2024-01-29T18:12:06.671Z,30.50
2024-01-29T18:14:35.075Z,29.70
2024-01-29T18:17:07.753Z,33.90
2024-01-29T18:19:36.909Z,32.30
2024-01-29T18:22:05.710Z,34.70
2024-01-29T18:24:34.199Z,38.60
2024-01-29T18:27:02.846Z,43.80
2024-01-29T18:29:33.154Z,39.40
2024-01-29T18:32:04.629Z,42.20
2024-01-29T18:34:37.549Z,43.50
2024-01-29T18:37:06.238Z,42.30
2024-01-29T18:39:36.034Z,42.20
2024-01-29T18:42:05.706Z,52.00
2024-01-29T18:44:34.865Z,53.60
2024-01-29T18:47:03.491Z,51.20
2024-01-29T18:49:32.159Z,45.60
2024-01-29T18:52:05.396Z,45.30
2024-01-29T18:54:34.346Z,44.40
2024-01-29T18:57:04.760Z,43.00
2024-01-29T18:59:35.476Z,44.70
2024-01-29T19:02:04.647Z,45.40
2024-01-29T19:04:33.316Z,45.80
2024-01-29T19:07:04.005Z,45.80
2024-01-29T19:09:32.635Z,40.70
2024-01-29T19:12:01.354Z,40.00
2024-01-29T19:14:29.830Z,38.30
2024-01-29T19:16:58.434Z,35.80
2024-01-29T19:19:27.257Z,35.40
2024-01-29T19:21:57.575Z,34.80
2024-01-29T19:24:26.952Z,18.30
2024-01-29T19:26:55.392Z,33.80
2024-01-29T19:29:23.998Z,31.20
2024-01-29T19:31:53.274Z,31.50
2024-01-29T19:34:22.043Z,31.50
2024-01-29T19:36:53.396Z,32.30
2024-01-29T19:39:22.397Z,16.80
2024-01-29T19:41:52.878Z,32.00
2024-01-29T19:44:22.988Z,34.00
2024-01-29T19:46:51.570Z,32.30
2024-01-29T19:49:20.126Z,18.10
2024-01-29T19:51:48.843Z,33.90
2024-01-29T19:54:17.374Z,32.30
2024-01-29T19:56:45.918Z,32.80
2024-01-29T19:59:14.547Z,32.50
2024-01-29T20:01:46.502Z,33.50
2024-01-29T20:04:15.408Z,31.40
2024-01-29T20:06:44.064Z,26.60
2024-01-29T20:09:12.691Z,25.90
2024-01-29T20:11:42.393Z,25.10
2024-01-29T20:14:10.868Z,26.30
2024-01-29T20:16:39.783Z,25.00
2024-01-29T20:19:08.360Z,28.90
2024-01-29T20:21:42.627Z,27.30
2024-01-29T20:24:11.280Z,15.50
2024-01-29T20:26:43.381Z,31.20
2024-01-29T20:29:13.528Z,37.30
2024-01-29T20:31:42.704Z,40.50
2024-01-29T20:34:13.766Z,39.70
2024-01-29T20:36:43.090Z,20.70
2024-01-29T20:39:16.453Z,35.40
2024-01-29T20:41:47.263Z,36.10
2024-01-29T20:44:17.333Z,34.50
2024-01-29T20:46:47.308Z,33.70
2024-01-29T20:49:16.654Z,30.10
2024-01-29T20:51:45.688Z,29.90
2024-01-29T20:54:14.874Z,15.90
2024-01-29T20:56:43.511Z,30.00
2024-01-29T20:59:12.460Z,30.30
2024-01-29T21:01:47.577Z,29.80
2024-01-29T21:04:16.658Z,30.00
2024-01-29T21:06:47.970Z,31.30
2024-01-29T21:09:16.614Z,30.40
2024-01-29T21:11:45.295Z,15.60
2024-01-29T21:14:15.089Z,15.60
2024-01-29T21:16:44.371Z,33.40
2024-01-29T21:19:13.080Z,31.90
2024-01-29T21:21:43.852Z,31.80
2024-01-29T21:24:13.172Z,30.00
2024-01-29T21:26:41.698Z,33.50
2024-01-29T21:29:10.289Z,32.80
2024-01-29T21:31:38.779Z,33.10
2024-01-29T21:34:07.366Z,34.90
2024-01-29T21:36:36.001Z,19.90
2024-01-29T21:39:06.805Z,38.60
2024-01-29T21:41:38.803Z,38.20
2024-01-29T21:44:10.383Z,36.30
2024-01-29T21:46:38.909Z,34.90
2024-01-29T21:49:09.357Z,31.50
2024-01-29T21:51:43.719Z,35.80
2024-01-29T21:54:12.616Z,36.80
2024-01-29T21:56:41.190Z,40.10
2024-01-29T21:59:09.906Z,44.50
2024-01-29T22:01:40.350Z,43.90
2024-01-29T22:04:09.002Z,42.90
2024-01-29T22:06:37.777Z,40.30
2024-01-29T22:09:07.529Z,39.40
2024-01-29T22:11:36.422Z,38.20
2024-01-29T22:14:05.071Z,38.50
2024-01-29T22:16:34.660Z,40.70
2024-01-29T22:19:03.469Z,40.90
2024-01-29T22:21:36.359Z,42.60
2024-01-29T22:26:33.358Z,23.40
2024-01-29T22:29:04.490Z,22.60
2024-01-29T22:31:34.324Z,20.00
2024-01-29T22:34:03.636Z,40.10
2024-01-29T22:36:32.121Z,20.00
2024-01-29T22:39:00.599Z,39.60
2024-01-29T22:41:29.885Z,38.80
2024-01-29T22:43:58.360Z,20.30
2024-01-29T22:46:27.408Z,17.00
2024-01-29T22:48:58.000Z,39.50
2024-01-29T22:51:28.065Z,19.90
2024-01-29T22:53:56.593Z,39.80
2024-01-29T22:56:25.007Z,39.30
2024-01-29T22:58:53.474Z,36.40
2024-01-29T23:01:22.287Z,36.50
2024-01-29T23:03:50.888Z,38.60
2024-01-29T23:06:19.425Z,20.90
2024-01-29T23:08:48.007Z,19.70
2024-01-29T23:11:18.163Z,38.00
2024-01-29T23:13:46.568Z,38.10
2024-01-29T23:16:16.010Z,17.90
2024-01-29T23:18:44.611Z,41.60
2024-01-29T23:21:13.127Z,19.80
2024-01-29T23:23:41.801Z,20.90
2024-01-29T23:26:11.388Z,41.70
2024-01-29T23:28:39.997Z,20.40
2024-01-29T23:31:09.317Z,20.90
2024-01-29T23:33:37.921Z,38.00
2024-01-29T23:36:06.843Z,36.30
2024-01-29T23:38:36.984Z,38.40
2024-01-29T23:41:05.473Z,38.50
2024-01-29T23:43:34.275Z,20.80
2024-01-29T23:46:03.096Z,17.30
2024-01-29T23:48:31.790Z,16.80
2024-01-29T23:51:00.663Z,39.30
2024-01-29T23:53:29.188Z,40.60
2024-01-29T23:55:58.182Z,37.90
2024-01-29T23:58:26.772Z,35.90
